sensor_id;sensor_type;location;lat;lon;timestamp;P1;durP1;ratioP1;P2;durP2;ratioP2
53545;SDS011;39432;51.902;10.844;2023-04-15T00:01:03;5.22;;;3.53;;
53545;SDS011;39432;51.902;10.844;2023-04-15T00:03:34;6.63;;;3.55;;
53545;SDS011;39432;51.902;10.844;2023-04-15T00:06:04;6.00;;;3.42;;
53545;SDS011;39432;51.902;10.844;2023-04-15T00:08:34;5.35;;;3.78;;
53545;SDS011;39432;51.902;10.844;2023-04-15T00:11:04;6.22;;;4.10;;
53545;SDS011;39432;51.902;10.844;2023-04-15T00:13:33;6.63;;;4.00;;
53545;SDS011;39432;51.902;10.844;2023-04-15T00:16:06;6.43;;;3.80;;
53545;SDS011;39432;51.902;10.844;2023-04-15T00:18:37;5.20;;;4.10;;
53545;SDS011;39432;51.902;10.844;2023-04-15T00:21:07;6.45;;;4.03;;
53545;SDS011;39432;51.902;10.844;2023-04-15T00:23:37;6.20;;;4.45;;
53545;SDS011;39432;51.902;10.844;2023-04-15T00:26:07;7.82;;;4.55;;
53545;SDS011;39432;51.902;10.844;2023-04-15T00:28:37;5.50;;;4.35;;
53545;SDS011;39432;51.902;10.844;2023-04-15T00:31:09;8.43;;;4.50;;
53545;SDS011;39432;51.902;10.844;2023-04-15T00:33:39;7.13;;;4.75;;
53545;SDS011;39432;51.902;10.844;2023-04-15T00:36:09;7.60;;;4.55;;
53545;SDS011;39432;51.902;10.844;2023-04-15T00:38:39;7.15;;;5.10;;
53545;SDS011;39432;51.902;10.844;2023-04-15T00:41:09;6.05;;;4.63;;
53545;SDS011;39432;51.902;10.844;2023-04-15T00:43:39;7.18;;;4.50;;
53545;SDS011;39432;51.902;10.844;2023-04-15T00:46:11;5.47;;;4.13;;
53545;SDS011;39432;51.902;10.844;2023-04-15T00:48:44;7.20;;;4.73;;
53545;SDS011;39432;51.902;10.844;2023-04-15T00:51:15;7.63;;;5.30;;
53545;SDS011;39432;51.902;10.844;2023-04-15T00:53:44;9.50;;;5.38;;
53545;SDS011;39432;51.902;10.844;2023-04-15T00:56:14;8.43;;;5.07;;
53545;SDS011;39432;51.902;10.844;2023-04-15T00:58:44;6.72;;;5.40;;
53545;SDS011;39432;51.902;10.844;2023-04-15T01:01:16;9.73;;;5.47;;
53545;SDS011;39432;51.902;10.844;2023-04-15T01:03:49;8.48;;;4.95;;
53545;SDS011;39432;51.902;10.844;2023-04-15T01:06:20;6.78;;;5.03;;
53545;SDS011;39432;51.902;10.844;2023-04-15T01:08:49;8.80;;;5.78;;
53545;SDS011;39432;51.902;10.844;2023-04-15T01:11:19;6.97;;;5.55;;
53545;SDS011;39432;51.902;10.844;2023-04-15T01:13:50;7.93;;;5.60;;
53545;SDS011;39432;51.902;10.844;2023-04-15T01:16:22;8.93;;;5.38;;
53545;SDS011;39432;51.902;10.844;2023-04-15T01:18:53;8.98;;;5.30;;
53545;SDS011;39432;51.902;10.844;2023-04-15T01:21:23;7.50;;;5.30;;
53545;SDS011;39432;51.902;10.844;2023-04-15T01:23:53;7.55;;;5.25;;
53545;SDS011;39432;51.902;10.844;2023-04-15T01:26:27;7.60;;;5.50;;
53545;SDS011;39432;51.902;10.844;2023-04-15T01:28:58;7.97;;;4.90;;
53545;SDS011;39432;51.902;10.844;2023-04-15T01:31:28;8.00;;;5.50;;
53545;SDS011;39432;51.902;10.844;2023-04-15T01:33:57;6.85;;;5.10;;
53545;SDS011;39432;51.902;10.844;2023-04-15T01:36:46;6.43;;;5.20;;
53545;SDS011;39432;51.902;10.844;2023-04-15T01:39:16;8.32;;;5.55;;
53545;SDS011;39432;51.902;10.844;2023-04-15T01:41:49;6.57;;;5.13;;
53545;SDS011;39432;51.902;10.844;2023-04-15T01:44:19;6.60;;;4.75;;
53545;SDS011;39432;51.902;10.844;2023-04-15T01:46:50;9.35;;;5.18;;
53545;SDS011;39432;51.902;10.844;2023-04-15T01:49:21;8.80;;;5.82;;
53545;SDS011;39432;51.902;10.844;2023-04-15T01:51:53;9.68;;;5.82;;
53545;SDS011;39432;51.902;10.844;2023-04-15T01:54:24;8.10;;;5.55;;
53545;SDS011;39432;51.902;10.844;2023-04-15T01:56:58;7.82;;;5.25;;
53545;SDS011;39432;51.902;10.844;2023-04-15T01:59:30;8.02;;;5.30;;
53545;SDS011;39432;51.902;10.844;2023-04-15T02:02:01;9.77;;;5.80;;
53545;SDS011;39432;51.902;10.844;2023-04-15T02:04:32;9.90;;;5.55;;
53545;SDS011;39432;51.902;10.844;2023-04-15T02:07:03;8.98;;;5.22;;
53545;SDS011;39432;51.902;10.844;2023-04-15T02:09:35;9.52;;;5.40;;
53545;SDS011;39432;51.902;10.844;2023-04-15T02:12:10;8.77;;;5.93;;
53545;SDS011;39432;51.902;10.844;2023-04-15T02:14:42;7.97;;;5.70;;
53545;SDS011;39432;51.902;10.844;2023-04-15T02:17:12;8.75;;;6.13;;
53545;SDS011;39432;51.902;10.844;2023-04-15T02:19:44;7.00;;;5.70;;
53545;SDS011;39432;51.902;10.844;2023-04-15T02:22:15;8.68;;;5.82;;
53545;SDS011;39432;51.902;10.844;2023-04-15T02:24:46;8.07;;;6.30;;
53545;SDS011;39432;51.902;10.844;2023-04-15T02:27:19;8.38;;;6.25;;
53545;SDS011;39432;51.902;10.844;2023-04-15T02:29:50;9.77;;;6.18;;
53545;SDS011;39432;51.902;10.844;2023-04-15T02:32:21;9.73;;;6.28;;
53545;SDS011;39432;51.902;10.844;2023-04-15T02:34:54;10.50;;;6.60;;
53545;SDS011;39432;51.902;10.844;2023-04-15T02:37:25;9.57;;;6.22;;
53545;SDS011;39432;51.902;10.844;2023-04-15T02:39:58;8.52;;;6.22;;
53545;SDS011;39432;51.902;10.844;2023-04-15T02:42:31;8.00;;;6.18;;
53545;SDS011;39432;51.902;10.844;2023-04-15T02:45:03;8.68;;;6.30;;
53545;SDS011;39432;51.902;10.844;2023-04-15T02:47:35;9.25;;;6.47;;
53545;SDS011;39432;51.902;10.844;2023-04-15T02:50:09;9.98;;;7.05;;
53545;SDS011;39432;51.902;10.844;2023-04-15T02:52:42;10.40;;;6.72;;
53545;SDS011;39432;51.902;10.844;2023-04-15T02:55:13;9.50;;;6.68;;
53545;SDS011;39432;51.902;10.844;2023-04-15T02:57:47;11.63;;;6.35;;
53545;SDS011;39432;51.902;10.844;2023-04-15T03:00:18;10.90;;;7.90;;
53545;SDS011;39432;51.902;10.844;2023-04-15T03:02:56;9.15;;;6.38;;
53545;SDS011;39432;51.902;10.844;2023-04-15T03:05:28;12.07;;;7.90;;
53545;SDS011;39432;51.902;10.844;2023-04-15T03:08:00;12.20;;;8.25;;
53545;SDS011;39432;51.902;10.844;2023-04-15T03:10:31;11.43;;;7.18;;
53545;SDS011;39432;51.902;10.844;2023-04-15T03:13:05;11.05;;;7.63;;
53545;SDS011;39432;51.902;10.844;2023-04-15T03:15:36;11.48;;;7.57;;
53545;SDS011;39432;51.902;10.844;2023-04-15T03:18:07;11.70;;;7.57;;
53545;SDS011;39432;51.902;10.844;2023-04-15T03:20:38;11.60;;;7.70;;
53545;SDS011;39432;51.902;10.844;2023-04-15T03:23:09;13.48;;;7.90;;
53545;SDS011;39432;51.902;10.844;2023-04-15T03:25:40;12.13;;;7.63;;
53545;SDS011;39432;51.902;10.844;2023-04-15T03:28:14;11.13;;;7.63;;
53545;SDS011;39432;51.902;10.844;2023-04-15T03:30:44;14.57;;;9.13;;
53545;SDS011;39432;51.902;10.844;2023-04-15T03:33:15;13.25;;;8.45;;
53545;SDS011;39432;51.902;10.844;2023-04-15T03:35:46;14.95;;;10.00;;
53545;SDS011;39432;51.902;10.844;2023-04-15T03:38:17;15.82;;;10.00;;
53545;SDS011;39432;51.902;10.844;2023-04-15T03:40:48;20.23;;;12.05;;
53545;SDS011;39432;51.902;10.844;2023-04-15T03:43:22;21.25;;;12.88;;
53545;SDS011;39432;51.902;10.844;2023-04-15T03:45:53;20.70;;;12.80;;
53545;SDS011;39432;51.902;10.844;2023-04-15T03:48:25;20.38;;;13.00;;
53545;SDS011;39432;51.902;10.844;2023-04-15T03:50:56;25.48;;;15.23;;
53545;SDS011;39432;51.902;10.844;2023-04-15T03:53:27;23.00;;;14.35;;
53545;SDS011;39432;51.902;10.844;2023-04-15T03:55:58;22.65;;;14.30;;
53545;SDS011;39432;51.902;10.844;2023-04-15T03:58:32;21.65;;;14.38;;
53545;SDS011;39432;51.902;10.844;2023-04-15T04:01:03;21.88;;;13.48;;
53545;SDS011;39432;51.902;10.844;2023-04-15T04:03:34;22.58;;;13.80;;
53545;SDS011;39432;51.902;10.844;2023-04-15T04:06:05;20.42;;;13.48;;
53545;SDS011;39432;51.902;10.844;2023-04-15T04:08:36;19.88;;;13.00;;
53545;SDS011;39432;51.902;10.844;2023-04-15T04:11:07;21.02;;;13.52;;
53545;SDS011;39432;51.902;10.844;2023-04-15T04:13:40;26.90;;;16.27;;
53545;SDS011;39432;51.902;10.844;2023-04-15T04:16:11;24.98;;;16.50;;
53545;SDS011;39432;51.902;10.844;2023-04-15T04:18:42;31.38;;;18.58;;
53545;SDS011;39432;51.902;10.844;2023-04-15T04:21:13;30.17;;;18.77;;
53545;SDS011;39432;51.902;10.844;2023-04-15T04:23:44;26.02;;;16.75;;
53545;SDS011;39432;51.902;10.844;2023-04-15T04:26:15;26.88;;;17.25;;
53545;SDS011;39432;51.902;10.844;2023-04-15T04:28:49;28.70;;;17.27;;
53545;SDS011;39432;51.902;10.844;2023-04-15T04:31:20;32.08;;;18.80;;
53545;SDS011;39432;51.902;10.844;2023-04-15T04:33:51;33.28;;;19.58;;
53545;SDS011;39432;51.902;10.844;2023-04-15T04:36:22;30.15;;;19.40;;
53545;SDS011;39432;51.902;10.844;2023-04-15T04:38:53;32.63;;;20.27;;
53545;SDS011;39432;51.902;10.844;2023-04-15T04:41:24;29.45;;;18.35;;
53545;SDS011;39432;51.902;10.844;2023-04-15T04:43:57;29.08;;;17.90;;
53545;SDS011;39432;51.902;10.844;2023-04-15T04:46:28;26.20;;;16.85;;
53545;SDS011;39432;51.902;10.844;2023-04-15T04:48:59;27.02;;;17.75;;
53545;SDS011;39432;51.902;10.844;2023-04-15T04:51:30;26.98;;;17.05;;
53545;SDS011;39432;51.902;10.844;2023-04-15T04:54:01;29.73;;;17.63;;
53545;SDS011;39432;51.902;10.844;2023-04-15T04:56:33;26.20;;;17.05;;
53545;SDS011;39432;51.902;10.844;2023-04-15T04:59:08;28.98;;;17.48;;
53545;SDS011;39432;51.902;10.844;2023-04-15T05:01:39;27.95;;;16.98;;
53545;SDS011;39432;51.902;10.844;2023-04-15T05:04:11;25.77;;;16.50;;
53545;SDS011;39432;51.902;10.844;2023-04-15T05:06:42;26.40;;;16.75;;
53545;SDS011;39432;51.902;10.844;2023-04-15T05:09:13;23.40;;;15.15;;
53545;SDS011;39432;51.902;10.844;2023-04-15T05:11:44;28.50;;;16.75;;
53545;SDS011;39432;51.902;10.844;2023-04-15T05:14:17;29.23;;;16.65;;
53545;SDS011;39432;51.902;10.844;2023-04-15T05:16:50;17.83;;;11.93;;
53545;SDS011;39432;51.902;10.844;2023-04-15T05:19:20;24.83;;;15.25;;
53545;SDS011;39432;51.902;10.844;2023-04-15T05:21:51;24.38;;;16.95;;
53545;SDS011;39432;51.902;10.844;2023-04-15T05:24:22;26.83;;;17.80;;
53545;SDS011;39432;51.902;10.844;2023-04-15T05:26:54;27.17;;;16.70;;
53545;SDS011;39432;51.902;10.844;2023-04-15T05:29:27;28.20;;;17.58;;
53545;SDS011;39432;51.902;10.844;2023-04-15T05:31:58;24.33;;;15.70;;
53545;SDS011;39432;51.902;10.844;2023-04-15T05:34:30;29.02;;;18.05;;
53545;SDS011;39432;51.902;10.844;2023-04-15T05:37:01;29.40;;;17.83;;
53545;SDS011;39432;51.902;10.844;2023-04-15T05:39:31;27.60;;;17.13;;
53545;SDS011;39432;51.902;10.844;2023-04-15T05:42:02;29.15;;;17.48;;
53545;SDS011;39432;51.902;10.844;2023-04-15T05:44:37;28.48;;;18.52;;
53545;SDS011;39432;51.902;10.844;2023-04-15T05:47:08;29.77;;;18.92;;
53545;SDS011;39432;51.902;10.844;2023-04-15T05:49:39;28.85;;;18.38;;
53545;SDS011;39432;51.902;10.844;2023-04-15T05:52:10;31.48;;;19.38;;
53545;SDS011;39432;51.902;10.844;2023-04-15T05:54:41;27.98;;;17.88;;
53545;SDS011;39432;51.902;10.844;2023-04-15T05:57:12;25.90;;;17.20;;
53545;SDS011;39432;51.902;10.844;2023-04-15T05:59:45;28.00;;;17.13;;
53545;SDS011;39432;51.902;10.844;2023-04-15T06:02:18;27.73;;;17.90;;
53545;SDS011;39432;51.902;10.844;2023-04-15T06:04:49;26.58;;;16.73;;
53545;SDS011;39432;51.902;10.844;2023-04-15T06:07:20;25.27;;;15.93;;
53545;SDS011;39432;51.902;10.844;2023-04-15T06:09:51;21.02;;;15.85;;
53545;SDS011;39432;51.902;10.844;2023-04-15T06:12:22;23.08;;;15.90;;
53545;SDS011;39432;51.902;10.844;2023-04-15T06:14:56;23.80;;;16.23;;
53545;SDS011;39432;51.902;10.844;2023-04-15T06:17:27;24.55;;;15.85;;
53545;SDS011;39432;51.902;10.844;2023-04-15T06:19:58;21.98;;;15.07;;
53545;SDS011;39432;51.902;10.844;2023-04-15T06:22:28;21.02;;;13.68;;
53545;SDS011;39432;51.902;10.844;2023-04-15T06:24:59;27.08;;;14.80;;
53545;SDS011;39432;51.902;10.844;2023-04-15T06:27:29;19.02;;;14.38;;
53545;SDS011;39432;51.902;10.844;2023-04-15T06:30:03;18.75;;;13.57;;
53545;SDS011;39432;51.902;10.844;2023-04-15T06:32:35;17.58;;;12.90;;
53545;SDS011;39432;51.902;10.844;2023-04-15T06:35:06;18.95;;;13.20;;
53545;SDS011;39432;51.902;10.844;2023-04-15T06:37:38;21.27;;;13.15;;
53545;SDS011;39432;51.902;10.844;2023-04-15T06:40:09;18.13;;;13.13;;
53545;SDS011;39432;51.902;10.844;2023-04-15T06:42:41;16.63;;;11.82;;
53545;SDS011;39432;51.902;10.844;2023-04-15T06:45:14;19.52;;;13.23;;
53545;SDS011;39432;51.902;10.844;2023-04-15T06:47:45;20.55;;;13.13;;
53545;SDS011;39432;51.902;10.844;2023-04-15T06:50:16;20.73;;;13.57;;
53545;SDS011;39432;51.902;10.844;2023-04-15T06:52:47;19.08;;;12.75;;
53545;SDS011;39432;51.902;10.844;2023-04-15T06:55:18;17.13;;;12.23;;
53545;SDS011;39432;51.902;10.844;2023-04-15T06:57:49;17.42;;;12.73;;
53545;SDS011;39432;51.902;10.844;2023-04-15T07:00:22;17.98;;;12.52;;
53545;SDS011;39432;51.902;10.844;2023-04-15T07:02:55;16.30;;;10.30;;
53545;SDS011;39432;51.902;10.844;2023-04-15T07:05:27;17.38;;;12.65;;
53545;SDS011;39432;51.902;10.844;2023-04-15T07:07:59;18.33;;;12.73;;
53545;SDS011;39432;51.902;10.844;2023-04-15T07:10:30;19.02;;;13.75;;
53545;SDS011;39432;51.902;10.844;2023-04-15T07:13:01;16.60;;;12.73;;
53545;SDS011;39432;51.902;10.844;2023-04-15T07:15:34;16.52;;;12.80;;
53545;SDS011;39432;51.902;10.844;2023-04-15T07:18:05;17.33;;;13.20;;
53545;SDS011;39432;51.902;10.844;2023-04-15T07:20:37;18.30;;;12.57;;
53545;SDS011;39432;51.902;10.844;2023-04-15T07:23:08;20.13;;;14.02;;
53545;SDS011;39432;51.902;10.844;2023-04-15T07:25:39;18.45;;;13.70;;
53545;SDS011;39432;51.902;10.844;2023-04-15T07:28:10;20.50;;;15.63;;
53545;SDS011;39432;51.902;10.844;2023-04-15T07:30:43;22.75;;;14.30;;
53545;SDS011;39432;51.902;10.844;2023-04-15T07:33:14;22.00;;;14.75;;
53545;SDS011;39432;51.902;10.844;2023-04-15T07:35:45;24.17;;;14.88;;
53545;SDS011;39432;51.902;10.844;2023-04-15T07:38:16;18.27;;;13.05;;
53545;SDS011;39432;51.902;10.844;2023-04-15T07:40:47;21.80;;;14.60;;
53545;SDS011;39432;51.902;10.844;2023-04-15T07:43:18;19.13;;;13.93;;
53545;SDS011;39432;51.902;10.844;2023-04-15T07:45:52;22.23;;;14.85;;
53545;SDS011;39432;51.902;10.844;2023-04-15T07:48:23;20.42;;;13.93;;
53545;SDS011;39432;51.902;10.844;2023-04-15T07:50:54;22.55;;;14.88;;
53545;SDS011;39432;51.902;10.844;2023-04-15T07:53:25;20.88;;;14.65;;
53545;SDS011;39432;51.902;10.844;2023-04-15T07:55:56;22.63;;;15.05;;
53545;SDS011;39432;51.902;10.844;2023-04-15T07:58:27;23.70;;;15.95;;
53545;SDS011;39432;51.902;10.844;2023-04-15T08:01:00;28.35;;;17.58;;
53545;SDS011;39432;51.902;10.844;2023-04-15T08:03:32;22.38;;;15.38;;
53545;SDS011;39432;51.902;10.844;2023-04-15T08:06:03;19.58;;;13.55;;
53545;SDS011;39432;51.902;10.844;2023-04-15T08:08:34;18.67;;;12.75;;
53545;SDS011;39432;51.902;10.844;2023-04-15T08:11:05;19.98;;;13.93;;
53545;SDS011;39432;51.902;10.844;2023-04-15T08:13:36;20.05;;;13.63;;
53545;SDS011;39432;51.902;10.844;2023-04-15T08:16:17;21.88;;;15.25;;
53545;SDS011;39432;51.902;10.844;2023-04-15T08:18:51;17.20;;;11.82;;
53545;SDS011;39432;51.902;10.844;2023-04-15T08:21:22;13.85;;;10.02;;
53545;SDS011;39432;51.902;10.844;2023-04-15T08:23:54;14.73;;;10.27;;
53545;SDS011;39432;51.902;10.844;2023-04-15T08:26:25;13.80;;;10.30;;
53545;SDS011;39432;51.902;10.844;2023-04-15T08:28:56;19.83;;;10.00;;
53545;SDS011;39432;51.902;10.844;2023-04-15T08:31:30;12.75;;;9.02;;
53545;SDS011;39432;51.902;10.844;2023-04-15T08:34:01;12.15;;;9.02;;
53545;SDS011;39432;51.902;10.844;2023-04-15T08:36:32;12.23;;;8.55;;
53545;SDS011;39432;51.902;10.844;2023-04-15T08:39:03;12.05;;;8.35;;
53545;SDS011;39432;51.902;10.844;2023-04-15T08:41:37;13.07;;;9.02;;
53545;SDS011;39432;51.902;10.844;2023-04-15T08:44:10;13.50;;;9.13;;
53545;SDS011;39432;51.902;10.844;2023-04-15T08:46:45;11.00;;;8.32;;
53545;SDS011;39432;51.902;10.844;2023-04-15T08:49:18;14.68;;;9.18;;
53545;SDS011;39432;51.902;10.844;2023-04-15T08:51:50;10.60;;;7.32;;
53545;SDS011;39432;51.902;10.844;2023-04-15T08:54:23;11.85;;;8.13;;
53545;SDS011;39432;51.902;10.844;2023-04-15T08:56:55;12.88;;;7.32;;
53545;SDS011;39432;51.902;10.844;2023-04-15T08:59:27;9.23;;;7.40;;
53545;SDS011;39432;51.902;10.844;2023-04-15T09:02:02;9.63;;;7.68;;
53545;SDS011;39432;51.902;10.844;2023-04-15T09:04:33;13.05;;;8.23;;
53545;SDS011;39432;51.902;10.844;2023-04-15T09:07:04;10.45;;;7.95;;
53545;SDS011;39432;51.902;10.844;2023-04-15T09:09:35;13.55;;;10.15;;
53545;SDS011;39432;51.902;10.844;2023-04-15T09:12:07;13.20;;;9.52;;
53545;SDS011;39432;51.902;10.844;2023-04-15T09:14:38;13.90;;;10.60;;
53545;SDS011;39432;51.902;10.844;2023-04-15T09:17:12;14.18;;;10.30;;
53545;SDS011;39432;51.902;10.844;2023-04-15T09:19:43;11.48;;;8.80;;
53545;SDS011;39432;51.902;10.844;2023-04-15T09:22:14;11.23;;;8.98;;
53545;SDS011;39432;51.902;10.844;2023-04-15T09:24:45;15.68;;;9.77;;
53545;SDS011;39432;51.902;10.844;2023-04-15T09:27:16;11.85;;;8.60;;
53545;SDS011;39432;51.902;10.844;2023-04-15T09:29:48;10.32;;;7.10;;
53545;SDS011;39432;51.902;10.844;2023-04-15T09:32:22;10.27;;;7.10;;
53545;SDS011;39432;51.902;10.844;2023-04-15T09:34:53;8.65;;;6.10;;
53545;SDS011;39432;51.902;10.844;2023-04-15T09:37:33;9.38;;;6.18;;
53545;SDS011;39432;51.902;10.844;2023-04-15T09:40:05;8.93;;;5.95;;
53545;SDS011;39432;51.902;10.844;2023-04-15T09:42:39;6.35;;;4.93;;
53545;SDS011;39432;51.902;10.844;2023-04-15T09:45:24;9.93;;;5.90;;
53545;SDS011;39432;51.902;10.844;2023-04-15T09:48:00;9.13;;;5.65;;
53545;SDS011;39432;51.902;10.844;2023-04-15T09:50:45;8.95;;;5.80;;
53545;SDS011;39432;51.902;10.844;2023-04-15T09:53:18;7.03;;;5.35;;
53545;SDS011;39432;51.902;10.844;2023-04-15T09:55:50;7.65;;;5.07;;
53545;SDS011;39432;51.902;10.844;2023-04-15T09:58:23;9.60;;;5.72;;
53545;SDS011;39432;51.902;10.844;2023-04-15T10:00:56;8.48;;;5.28;;
53545;SDS011;39432;51.902;10.844;2023-04-15T10:03:31;9.32;;;5.40;;
53545;SDS011;39432;51.902;10.844;2023-04-15T10:08:35;8.77;;;5.70;;
53545;SDS011;39432;51.902;10.844;2023-04-15T10:11:06;11.85;;;6.38;;
53545;SDS011;39432;51.902;10.844;2023-04-15T10:13:38;8.88;;;5.35;;
53545;SDS011;39432;51.902;10.844;2023-04-15T10:16:09;10.05;;;6.28;;
53545;SDS011;39432;51.902;10.844;2023-04-15T10:18:44;13.27;;;6.10;;
53545;SDS011;39432;51.902;10.844;2023-04-15T10:21:16;7.00;;;5.15;;
53545;SDS011;39432;51.902;10.844;2023-04-15T10:23:50;11.18;;;6.13;;
53545;SDS011;39432;51.902;10.844;2023-04-15T10:26:21;15.70;;;7.38;;
53545;SDS011;39432;51.902;10.844;2023-04-15T10:28:52;10.02;;;6.57;;
53545;SDS011;39432;51.902;10.844;2023-04-15T10:31:26;9.50;;;5.75;;
53545;SDS011;39432;51.902;10.844;2023-04-15T10:34:00;26.83;;;9.00;;
53545;SDS011;39432;51.902;10.844;2023-04-15T10:36:33;12.25;;;6.60;;
53545;SDS011;39432;51.902;10.844;2023-04-15T10:39:07;14.55;;;6.30;;
53545;SDS011;39432;51.902;10.844;2023-04-15T10:42:14;10.50;;;6.40;;
53545;SDS011;39432;51.902;10.844;2023-04-15T10:44:47;20.40;;;7.53;;
53545;SDS011;39432;51.902;10.844;2023-04-15T10:47:20;28.40;;;7.20;;
53545;SDS011;39432;51.902;10.844;2023-04-15T10:49:57;20.48;;;7.97;;
53545;SDS011;39432;51.902;10.844;2023-04-15T10:52:29;26.73;;;7.00;;
53545;SDS011;39432;51.902;10.844;2023-04-15T10:55:11;10.60;;;7.03;;
53545;SDS011;39432;51.902;10.844;2023-04-15T10:57:44;22.52;;;7.15;;
53545;SDS011;39432;51.902;10.844;2023-04-15T11:00:15;19.58;;;7.35;;
53545;SDS011;39432;51.902;10.844;2023-04-15T11:02:47;28.05;;;8.35;;
53545;SDS011;39432;51.902;10.844;2023-04-15T11:08:18;38.55;;;9.57;;
53545;SDS011;39432;51.902;10.844;2023-04-15T11:10:52;25.08;;;9.02;;
53545;SDS011;39432;51.902;10.844;2023-04-15T11:13:25;45.30;;;10.70;;
53545;SDS011;39432;51.902;10.844;2023-04-15T11:16:01;62.58;;;13.50;;
53545;SDS011;39432;51.902;10.844;2023-04-15T11:18:33;30.58;;;9.70;;
53545;SDS011;39432;51.902;10.844;2023-04-15T11:21:05;49.15;;;11.52;;
53545;SDS011;39432;51.902;10.844;2023-04-15T11:23:37;20.90;;;8.93;;
53545;SDS011;39432;51.902;10.844;2023-04-15T11:26:13;35.95;;;10.82;;
53545;SDS011;39432;51.902;10.844;2023-04-15T11:28:45;31.38;;;10.13;;
53545;SDS011;39432;51.902;10.844;2023-04-15T11:31:16;50.35;;;11.02;;
53545;SDS011;39432;51.902;10.844;2023-04-15T11:33:53;41.63;;;11.85;;
53545;SDS011;39432;51.902;10.844;2023-04-15T11:36:26;34.30;;;12.23;;
53545;SDS011;39432;51.902;10.844;2023-04-15T11:38:59;52.70;;;13.25;;
53545;SDS011;39432;51.902;10.844;2023-04-15T11:41:34;40.65;;;13.10;;
53545;SDS011;39432;51.902;10.844;2023-04-15T11:44:14;62.38;;;15.32;;
53545;SDS011;39432;51.902;10.844;2023-04-15T11:46:45;33.75;;;13.27;;
53545;SDS011;39432;51.902;10.844;2023-04-15T11:49:26;55.78;;;14.70;;
53545;SDS011;39432;51.902;10.844;2023-04-15T11:51:59;46.10;;;14.50;;
53545;SDS011;39432;51.902;10.844;2023-04-15T11:54:29;55.20;;;16.10;;
53545;SDS011;39432;51.902;10.844;2023-04-15T11:57:01;53.92;;;14.23;;
53545;SDS011;39432;51.902;10.844;2023-04-15T11:59:40;54.78;;;18.55;;
53545;SDS011;39432;51.902;10.844;2023-04-15T12:02:11;42.13;;;19.27;;
53545;SDS011;39432;51.902;10.844;2023-04-15T12:04:41;45.80;;;21.38;;
53545;SDS011;39432;51.902;10.844;2023-04-15T12:07:11;46.08;;;21.48;;
53545;SDS011;39432;51.902;10.844;2023-04-15T12:09:42;56.63;;;25.80;;
53545;SDS011;39432;51.902;10.844;2023-04-15T12:12:14;54.33;;;25.90;;
53545;SDS011;39432;51.902;10.844;2023-04-15T12:14:47;46.00;;;21.20;;
53545;SDS011;39432;51.902;10.844;2023-04-15T12:17:20;42.10;;;20.75;;
53545;SDS011;39432;51.902;10.844;2023-04-15T12:19:55;41.05;;;20.58;;
53545;SDS011;39432;51.902;10.844;2023-04-15T12:22:25;37.63;;;19.25;;
53545;SDS011;39432;51.902;10.844;2023-04-15T12:24:54;46.13;;;22.95;;
53545;SDS011;39432;51.902;10.844;2023-04-15T12:27:26;46.50;;;21.27;;
53545;SDS011;39432;51.902;10.844;2023-04-15T12:30:02;44.97;;;21.42;;
53545;SDS011;39432;51.902;10.844;2023-04-15T12:32:34;44.95;;;21.67;;
53545;SDS011;39432;51.902;10.844;2023-04-15T12:35:06;49.97;;;21.92;;
53545;SDS011;39432;51.902;10.844;2023-04-15T12:37:36;44.63;;;20.63;;
53545;SDS011;39432;51.902;10.844;2023-04-15T12:40:07;42.95;;;22.42;;
53545;SDS011;39432;51.902;10.844;2023-04-15T12:42:39;51.60;;;23.55;;
53545;SDS011;39432;51.902;10.844;2023-04-15T12:45:10;45.33;;;22.75;;
53545;SDS011;39432;51.902;10.844;2023-04-15T12:47:39;50.00;;;22.70;;
53545;SDS011;39432;51.902;10.844;2023-04-15T12:50:09;45.33;;;23.15;;
53545;SDS011;39432;51.902;10.844;2023-04-15T12:52:39;45.88;;;23.67;;
53545;SDS011;39432;51.902;10.844;2023-04-15T12:55:09;41.70;;;22.50;;
53545;SDS011;39432;51.902;10.844;2023-04-15T12:57:41;47.05;;;22.23;;
53545;SDS011;39432;51.902;10.844;2023-04-15T13:00:11;44.08;;;21.10;;
53545;SDS011;39432;51.902;10.844;2023-04-15T13:02:43;46.58;;;22.23;;
53545;SDS011;39432;51.902;10.844;2023-04-15T13:05:13;48.65;;;22.77;;
53545;SDS011;39432;51.902;10.844;2023-04-15T13:07:43;50.03;;;21.92;;
53545;SDS011;39432;51.902;10.844;2023-04-15T13:10:13;45.55;;;21.13;;
53545;SDS011;39432;51.902;10.844;2023-04-15T13:12:45;47.88;;;25.35;;
53545;SDS011;39432;51.902;10.844;2023-04-15T13:15:19;57.40;;;24.33;;
53545;SDS011;39432;51.902;10.844;2023-04-15T13:17:48;56.33;;;24.25;;
53545;SDS011;39432;51.902;10.844;2023-04-15T13:20:19;48.65;;;23.48;;
53545;SDS011;39432;51.902;10.844;2023-04-15T13:22:49;54.47;;;25.27;;
53545;SDS011;39432;51.902;10.844;2023-04-15T13:25:21;49.55;;;25.08;;
53545;SDS011;39432;51.902;10.844;2023-04-15T13:27:54;49.35;;;22.85;;
53545;SDS011;39432;51.902;10.844;2023-04-15T13:30:23;44.28;;;22.45;;
53545;SDS011;39432;51.902;10.844;2023-04-15T13:32:53;74.15;;;36.97;;
53545;SDS011;39432;51.902;10.844;2023-04-15T13:35:23;59.33;;;31.45;;
53545;SDS011;39432;51.902;10.844;2023-04-15T13:37:53;48.17;;;24.67;;
53545;SDS011;39432;51.902;10.844;2023-04-15T13:40:23;47.88;;;24.65;;
53545;SDS011;39432;51.902;10.844;2023-04-15T13:42:56;48.85;;;24.00;;
53545;SDS011;39432;51.902;10.844;2023-04-15T13:45:25;57.53;;;27.80;;
53545;SDS011;39432;51.902;10.844;2023-04-15T13:47:55;51.67;;;25.67;;
53545;SDS011;39432;51.902;10.844;2023-04-15T13:50:25;42.80;;;21.95;;
53545;SDS011;39432;51.902;10.844;2023-04-15T13:52:55;44.17;;;24.05;;
53545;SDS011;39432;51.902;10.844;2023-04-15T13:55:25;50.47;;;24.05;;
53545;SDS011;39432;51.902;10.844;2023-04-15T13:57:57;40.70;;;22.05;;
53545;SDS011;39432;51.902;10.844;2023-04-15T14:00:27;46.92;;;24.10;;
53545;SDS011;39432;51.902;10.844;2023-04-15T14:02:57;42.90;;;23.38;;
53545;SDS011;39432;51.902;10.844;2023-04-15T14:05:27;44.03;;;23.05;;
53545;SDS011;39432;51.902;10.844;2023-04-15T14:07:58;47.17;;;22.45;;
53545;SDS011;39432;51.902;10.844;2023-04-15T14:10:28;43.95;;;23.30;;
53545;SDS011;39432;51.902;10.844;2023-04-15T14:13:00;50.38;;;25.38;;
53545;SDS011;39432;51.902;10.844;2023-04-15T14:15:30;51.83;;;25.80;;
53545;SDS011;39432;51.902;10.844;2023-04-15T14:18:00;40.67;;;22.35;;
53545;SDS011;39432;51.902;10.844;2023-04-15T14:20:30;49.40;;;23.88;;
53545;SDS011;39432;51.902;10.844;2023-04-15T14:23:00;49.40;;;24.45;;
53545;SDS011;39432;51.902;10.844;2023-04-15T14:25:30;51.00;;;24.88;;
53545;SDS011;39432;51.902;10.844;2023-04-15T14:28:02;44.15;;;23.15;;
53545;SDS011;39432;51.902;10.844;2023-04-15T14:30:32;50.70;;;23.80;;
53545;SDS011;39432;51.902;10.844;2023-04-15T14:33:02;48.25;;;23.83;;
53545;SDS011;39432;51.902;10.844;2023-04-15T14:35:32;47.63;;;23.77;;
53545;SDS011;39432;51.902;10.844;2023-04-15T14:38:02;47.00;;;24.45;;
53545;SDS011;39432;51.902;10.844;2023-04-15T14:40:36;47.95;;;22.65;;
53545;SDS011;39432;51.902;10.844;2023-04-15T14:43:09;45.83;;;22.50;;
53545;SDS011;39432;51.902;10.844;2023-04-15T14:45:39;42.13;;;22.80;;
53545;SDS011;39432;51.902;10.844;2023-04-15T14:48:11;46.67;;;22.60;;